Time;durP1;ratioP1;P1;durP2;ratioP2;P2;SDS_P1;SDS_P2;PMS_P1;PMS_P2;Temp;Humidity;BMP_temperature;BMP_pressure;BME280_temperature;BME280_humidity;BME280_pressure;Samples;Min_cycle;Max_cycle;Signal;HPM_P1;HPM_P2
2021/05/17 00:01:05;;;;;;;8.75;5.57;;;11.80;96.40;;;;;;6213264;23;20028;-72
2021/05/17 00:03:31;;;;;;;7.95;5.00;;;11.70;96.50;;;;;;6212357;23;20449;-70
2021/05/17 00:05:57;;;;;;;6.50;5.35;;;11.70;96.50;;;;;;6211901;23;20007;-73
2021/05/17 00:08:23;;;;;;;5.38;4.47;;;11.70;96.40;;;;;;6213337;23;20028;-71
2021/05/17 00:10:49;;;;;;;11.20;5.05;;;11.70;96.60;;;;;;6212518;23;19997;-69
2021/05/17 00:13:15;;;;;;;6.32;4.43;;;11.70;96.60;;;;;;6213220;23;20012;-69
2021/05/17 00:15:40;;;;;;;6.95;5.20;;;11.70;96.60;;;;;;6211659;23;20422;-72
2021/05/17 00:18:07;;;;;;;9.50;4.75;;;11.70;96.70;;;;;;6212526;23;20429;-70
2021/05/17 00:20:33;;;;;;;5.50;4.43;;;11.70;96.60;;;;;;6213530;23;20019;-68
2021/05/17 00:22:59;;;;;;;6.10;5.35;;;11.70;96.70;;;;;;6213149;23;20036;-67
2021/05/17 00:25:27;;;;;;;6.63;4.95;;;11.70;96.70;;;;;;6212688;23;20032;-73
2021/05/17 00:27:55;;;;;;;8.93;4.35;;;11.70;96.70;;;;;;6213027;23;20365;-71
2021/05/17 00:30:24;;;;;;;6.97;4.18;;;11.70;96.70;;;;;;6213467;23;20001;-74
2021/05/17 00:32:50;;;;;;;7.18;4.38;;;11.70;96.80;;;;;;6210550;23;20039;-69
2021/05/17 00:35:16;;;;;;;6.00;4.00;;;11.70;96.80;;;;;;6211649;23;20015;-72
2021/05/17 00:37:43;;;;;;;5.10;3.85;;;11.70;96.90;;;;;;6213452;23;20011;-70
2021/05/17 00:40:10;;;;;;;5.43;3.88;;;11.70;97.20;;;;;;6214622;23;20058;-68
2021/05/17 00:42:37;;;;;;;5.70;4.20;;;11.70;96.90;;;;;;6213605;23;20032;-68
2021/05/17 00:45:05;;;;;;;6.15;3.97;;;11.60;97.00;;;;;;6214794;23;20528;-67
2021/05/17 00:47:31;;;;;;;4.97;3.78;;;11.60;97.00;;;;;;6214026;23;20016;-67
2021/05/17 00:49:58;;;;;;;3.83;3.53;;;11.50;96.90;;;;;;6215071;23;20004;-67
2021/05/17 00:52:24;;;;;;;5.13;3.78;;;11.50;97.00;;;;;;6214426;23;19997;-67
2021/05/17 00:54:50;;;;;;;7.13;4.63;;;11.50;97.00;;;;;;6214775;23;20028;-67
2021/05/17 00:57:17;;;;;;;4.95;4.20;;;11.40;97.10;;;;;;6213212;23;20004;-71
2021/05/17 00:59:43;;;;;;;9.80;4.40;;;11.40;97.10;;;;;;6213873;23;20060;-69
2021/05/17 01:02:09;;;;;;;5.75;4.60;;;11.30;97.20;;;;;;6214957;23;20072;-70
2021/05/17 01:04:34;;;;;;;6.75;4.72;;;11.30;97.30;;;;;;6214592;23;20008;-74
2021/05/17 01:07:02;;;;;;;6.82;5.78;;;11.30;97.30;;;;;;6213835;23;20476;-71
2021/05/17 01:09:28;;;;;;;7.07;5.03;;;11.30;97.40;;;;;;6214953;23;20008;-68
2021/05/17 01:12:00;;;;;;;7.57;5.25;;;11.40;97.50;;;;;;6213499;23;19996;-69
2021/05/17 01:14:25;;;;;;;;;;;11.40;97.50;;;;;;6214566;23;20422;-71
2021/05/17 01:16:55;;;;;;;14.15;6.05;;;11.40;97.50;;;;;;6214522;23;19906;-70
2021/05/17 01:19:43;;;;;;;6.22;5.63;;;11.50;97.40;;;;;;6215012;23;20001;-73
2021/05/17 01:22:22;;;;;;;7.53;6.20;;;11.50;97.40;;;;;;6213664;23;20047;-73
2021/05/17 01:24:47;;;;;;;6.95;5.90;;;11.50;97.40;;;;;;6214549;23;20008;-75
2021/05/17 01:27:13;;;;;;;6.38;5.65;;;11.50;97.40;;;;;;6212889;23;20004;-73
2021/05/17 01:29:40;;;;;;;7.93;6.43;;;11.50;97.50;;;;;;6213698;23;20032;-76
2021/05/17 01:32:08;;;;;;;9.00;5.65;;;11.50;97.50;;;;;;6214544;23;20476;-71
2021/05/17 01:34:36;;;;;;;8.23;5.60;;;11.50;97.50;;;;;;6213716;23;20004;-75
2021/05/17 01:37:01;;;;;;;7.70;5.57;;;11.50;97.50;;;;;;6214762;23;20000;-70
2021/05/17 01:39:27;;;;;;;8.30;5.20;;;11.60;97.60;;;;;;6214544;23;20063;-68
2021/05/17 01:41:54;;;;;;;8.57;5.03;;;11.50;97.60;;;;;;6212229;23;20478;-71
2021/05/17 01:44:24;;;;;;;8.10;5.18;;;11.60;97.60;;;;;;6212586;23;20020;-70
2021/05/17 01:46:51;;;;;;;8.13;4.75;;;11.50;97.60;;;;;;6214062;23;20389;-71
2021/05/17 01:49:18;;;;;;;5.97;5.18;;;11.50;97.60;;;;;;6211950;23;20015;-69
2021/05/17 01:51:49;;;;;;;5.95;4.50;;;11.50;97.50;;;;;;6214224;23;20016;-68
2021/05/17 01:54:16;;;;;;;6.17;4.43;;;11.50;97.50;;;;;;6214394;23;20001;-69
2021/05/17 01:56:43;;;;;;;8.00;4.50;;;11.60;97.50;;;;;;6213420;23;20426;-68
2021/05/17 01:59:10;;;;;;;6.00;4.07;;;11.60;97.50;;;;;;6212481;23;20427;-69
2021/05/17 02:01:35;;;;;;;5.85;4.15;;;11.50;97.50;;;;;;6214775;23;20011;-67
2021/05/17 02:04:02;;;;;;;6.18;3.92;;;11.50;97.50;;;;;;6213113;23;20009;-67
2021/05/17 02:06:28;;;;;;;4.97;4.22;;;11.50;97.50;;;;;;6214411;23;20083;-68
2021/05/17 02:08:54;;;;;;;7.38;4.10;;;11.50;97.50;;;;;;6213898;23;20028;-67
2021/05/17 02:11:22;;;;;;;4.38;3.97;;;11.50;97.40;;;;;;6211932;23;20096;-67
2021/05/17 02:13:47;;;;;;;7.70;4.18;;;11.50;97.50;;;;;;6214025;23;20075;-67
2021/05/17 02:16:15;;;;;;;4.68;4.18;;;11.50;97.50;;;;;;6214060;23;20417;-67
2021/05/17 02:18:42;;;;;;;7.75;4.28;;;11.50;97.40;;;;;;6213133;23;20426;-67
2021/05/17 02:21:09;;;;;;;9.15;4.35;;;11.60;97.50;;;;;;6214163;23;20307;-68
2021/05/17 02:23:35;;;;;;;5.55;3.90;;;11.60;97.50;;;;;;6213878;23;20009;-71
2021/05/17 02:26:02;;;;;;;7.93;4.43;;;11.60;97.50;;;;;;6211677;23;20012;-73
2021/05/17 02:28:28;;;;;;;5.22;4.15;;;11.60;97.50;;;;;;6214077;23;20418;-67
2021/05/17 02:30:54;;;;;;;6.28;4.25;;;11.70;97.80;;;;;;6213171;23;19996;-73
2021/05/17 02:33:19;;;;;;;5.22;4.13;;;11.70;97.50;;;;;;6213826;23;20410;-68
2021/05/17 02:35:45;;;;;;;7.28;4.53;;;11.70;97.40;;;;;;6212294;23;20020;-70
2021/05/17 02:38:12;;;;;;;7.15;4.82;;;11.80;97.40;;;;;;6213050;23;20434;-67
2021/05/17 02:40:38;;;;;;;6.95;4.80;;;11.70;97.30;;;;;;6213953;23;20035;-67
2021/05/17 02:43:05;;;;;;;8.68;4.95;;;11.80;97.30;;;;;;6212157;23;20019;-67
2021/05/17 02:45:32;;;;;;;6.63;4.90;;;11.80;97.40;;;;;;6213090;23;20012;-67
2021/05/17 02:48:00;;;;;;;12.23;4.60;;;11.70;97.30;;;;;;6212305;23;20091;-68
2021/05/17 02:50:31;;;;;;;8.88;4.88;;;11.70;97.30;;;;;;6214117;23;20032;-67
2021/05/17 02:52:57;;;;;;;4.75;4.20;;;11.60;97.30;;;;;;6213017;23;20012;-67
2021/05/17 02:55:32;;;;;;;6.97;4.50;;;11.50;97.30;;;;;;6212213;23;20410;-67
2021/05/17 02:58:06;;;;;;;10.95;4.70;;;11.50;97.50;;;;;;6213169;23;20429;-74
2021/05/17 03:00:36;;;;;;;8.25;4.63;;;11.40;97.50;;;;;;6212912;23;20005;-73
2021/05/17 03:03:11;;;;;;;9.85;4.32;;;11.40;97.60;;;;;;6211898;23;20031;-68
2021/05/17 03:05:40;;;;;;;13.90;4.35;;;11.40;97.60;;;;;;6212128;23;20321;-70
2021/05/17 03:08:06;;;;;;;6.53;4.80;;;11.40;97.60;;;;;;6213159;23;20070;-71
2021/05/17 03:10:34;;;;;;;7.00;5.20;;;11.30;97.60;;;;;;6213552;23;20008;-70
2021/05/17 03:13:07;;;;;;;11.90;5.22;;;11.30;97.70;;;;;;6212610;23;20516;-71
2021/05/17 03:15:33;;;;;;;7.15;5.05;;;11.30;97.70;;;;;;6213619;23;20334;-72
2021/05/17 03:17:59;;;;;;;5.78;4.63;;;11.20;97.80;;;;;;6213677;23;20000;-71
2021/05/17 03:20:26;;;;;;;6.35;4.97;;;11.20;97.80;;;;;;6213350;23;20008;-70
2021/05/17 03:22:54;;;;;;;12.25;5.03;;;11.20;97.90;;;;;;6211935;23;20009;-69
2021/05/17 03:25:24;;;;;;;9.43;5.60;;;11.30;98.00;;;;;;6213514;23;20307;-68
2021/05/17 03:27:50;;;;;;;11.82;4.85;;;11.30;98.00;;;;;;6211077;23;20007;-67
2021/05/17 03:30:16;;;;;;;7.78;4.78;;;11.40;98.00;;;;;;6213421;23;20036;-66
2021/05/17 03:32:42;;;;;;;9.32;5.05;;;11.40;97.90;;;;;;6211901;23;20319;-66
2021/05/17 03:35:07;;;;;;;5.70;4.63;;;11.50;97.90;;;;;;6212731;23;20007;-67
2021/05/17 03:37:33;;;;;;;5.57;4.82;;;11.50;97.90;;;;;;6213240;23;19996;-67
2021/05/17 03:39:59;;;;;;;7.75;5.18;;;11.50;97.80;;;;;;6213371;23;20005;-67
2021/05/17 03:42:24;;;;;;;8.80;5.38;;;11.50;97.80;;;;;;6213248;23;20028;-67
2021/05/17 03:44:50;;;;;;;8.40;4.43;;;11.50;97.80;;;;;;6213325;23;20020;-67
2021/05/17 03:47:15;;;;;;;9.82;5.53;;;11.60;97.80;;;;;;6211663;23;20000;-67
2021/05/17 03:49:41;;;;;;;9.90;4.95;;;11.60;97.80;;;;;;6212431;23;20004;-68
2021/05/17 03:52:07;;;;;;;8.55;4.60;;;11.60;97.70;;;;;;6211969;23;20043;-67
2021/05/17 03:54:32;;;;;;;13.15;5.50;;;11.60;97.70;;;;;;6213326;23;20085;-67
2021/05/17 03:56:58;;;;;;;9.55;5.40;;;11.70;97.70;;;;;;6212594;23;20001;-68
2021/05/17 03:59:24;;;;;;;7.00;4.75;;;11.70;97.70;;;;;;6213475;23;20418;-67
2021/05/17 04:01:50;;;;;;;7.00;5.13;;;11.70;97.70;;;;;;6213199;23;20434;-67
2021/05/17 04:04:18;;;;;;;8.18;5.75;;;11.80;97.70;;;;;;6212486;23;20020;-67
2021/05/17 04:13:18;;;;;;;13.40;5.40;;;11.90;97.60;;;;;;6123632;23;20021;-68
2021/05/17 04:15:17;;;;;;;7.95;5.45;;;11.90;97.50;;;;;;6189741;23;20079;-68
2021/05/17 04:17:43;;;;;;;10.85;6.30;;;11.90;97.50;;;;;;6214120;23;20486;-67
2021/05/17 04:20:09;;;;;;;9.52;5.45;;;11.90;97.40;;;;;;6213558;23;20028;-68
2021/05/17 04:22:35;;;;;;;8.77;4.75;;;11.90;97.40;;;;;;6213340;23;20003;-67
2021/05/17 04:25:00;;;;;;;7.88;5.13;;;11.90;97.40;;;;;;6214324;23;20008;-67
2021/05/17 04:27:26;;;;;;;8.48;5.20;;;11.90;97.50;;;;;;6215318;23;20071;-67
2021/05/17 04:29:51;;;;;;;12.23;5.95;;;12.00;97.60;;;;;;6215046;23;20496;-67
2021/05/17 04:32:17;;;;;;;10.32;5.63;;;12.00;97.50;;;;;;6213960;23;20479;-68
2021/05/17 04:34:42;;;;;;;10.15;5.15;;;12.00;97.40;;;;;;6214978;23;20000;-68
2021/05/17 04:37:08;;;;;;;6.13;5.07;;;12.00;97.40;;;;;;6215226;23;20076;-67
2021/05/17 04:39:33;;;;;;;10.00;5.13;;;12.00;97.40;;;;;;6213923;23;20414;-67
2021/05/17 04:41:59;;;;;;;6.68;4.90;;;12.10;97.40;;;;;;6215014;23;20026;-67
2021/05/17 04:44:26;;;;;;;7.03;4.80;;;12.10;97.30;;;;;;6214050;23;20505;-67
2021/05/17 04:46:52;;;;;;;8.23;4.75;;;12.10;97.30;;;;;;6215097;23;20071;-67
2021/05/17 04:49:18;;;;;;;14.75;5.50;;;12.10;97.40;;;;;;6214582;23;20094;-68
2021/05/17 04:51:43;;;;;;;8.10;5.13;;;12.10;97.40;;;;;;6214207;23;20062;-67
2021/05/17 04:54:09;;;;;;;8.55;4.88;;;12.20;97.70;;;;;;6215005;23;19996;-67
2021/05/17 04:56:34;;;;;;;8.73;5.80;;;12.20;97.40;;;;;;6213209;23;20445;-68
2021/05/17 04:59:00;;;;;;;9.02;5.40;;;12.20;97.40;;;;;;6213158;23;20418;-71
2021/05/17 05:01:26;;;;;;;8.55;5.53;;;12.20;97.30;;;;;;6214357;23;20039;-66
2021/05/17 05:03:51;;;;;;;8.70;4.93;;;12.30;97.50;;;;;;6214089;23;20012;-64
2021/05/17 05:06:17;;;;;;;9.57;4.75;;;12.20;97.20;;;;;;6210449;23;20005;-72
2021/05/17 05:08:42;;;;;;;10.18;5.00;;;12.20;97.30;;;;;;6213856;23;20420;-70
2021/05/17 05:11:08;;;;;;;9.18;4.82;;;12.30;97.30;;;;;;6212346;23;20005;-71
2021/05/17 05:13:33;;;;;;;7.55;4.40;;;12.20;97.30;;;;;;6213408;23;20008;-70
2021/05/17 05:15:59;;;;;;;7.68;4.68;;;12.30;97.40;;;;;;6213648;23;20303;-73
2021/05/17 05:18:25;;;;;;;10.00;5.28;;;12.30;97.40;;;;;;6213825;23;20008;-71
2021/05/17 05:20:51;;;;;;;10.38;5.13;;;12.40;97.40;;;;;;6210761;23;20001;-71
2021/05/17 05:23:18;;;;;;;8.68;5.88;;;12.40;97.30;;;;;;6213767;23;20081;-71
2021/05/17 05:28:20;;;;;;;6.65;4.68;;;12.60;97.10;;;;;;6220139;23;20005;-70
2021/05/17 05:30:55;;;;;;;7.03;4.35;;;12.60;97.10;;;;;;6214251;23;20012;-71
2021/05/17 05:33:21;;;;;;;6.63;4.45;;;12.70;97.00;;;;;;6213844;23;20004;-69
2021/05/17 05:35:47;;;;;;;7.07;3.88;;;12.80;96.90;;;;;;6213399;23;20295;-67
2021/05/17 05:38:13;;;;;;;5.70;4.05;;;12.90;96.80;;;;;;6214359;23;20000;-67
2021/05/17 05:40:39;;;;;;;6.60;3.90;;;13.00;96.90;;;;;;6213556;23;20007;-69
2021/05/17 05:43:05;;;;;;;5.95;3.55;;;13.10;96.50;;;;;;6213381;23;20008;-67
2021/05/17 05:45:41;;;;;;;4.78;3.55;;;13.20;96.30;;;;;;6213657;23;20023;-70
2021/05/17 05:48:07;;;;;;;4.53;3.42;;;13.20;96.10;;;;;;6211492;23;19997;-70
2021/05/17 05:50:33;;;;;;;5.22;3.30;;;13.10;96.00;;;;;;6212685;23;20109;-73
2021/05/17 05:52:58;;;;;;;6.82;3.90;;;13.00;96.00;;;;;;6213596;23;20303;-70
2021/05/17 05:55:24;;;;;;;21.33;4.53;;;13.00;96.10;;;;;;6213075;23;20001;-69
2021/05/17 05:57:50;;;;;;;5.72;3.45;;;13.00;96.10;;;;;;6213689;23;20003;-69
2021/05/17 06:00:17;;;;;;;9.00;4.18;;;13.00;96.20;;;;;;6213779;23;20009;-70
2021/05/17 06:02:44;;;;;;;6.93;4.10;;;13.00;96.10;;;;;;6212471;23;20377;-71
2021/05/17 06:05:10;;;;;;;10.32;4.15;;;13.00;96.10;;;;;;6213594;23;20385;-69
2021/05/17 06:07:36;;;;;;;6.07;3.83;;;13.00;96.00;;;;;;6213760;23;20433;-70
2021/05/17 06:10:05;;;;;;;8.48;3.60;;;13.00;95.90;;;;;;6212991;23;20111;-69
2021/05/17 06:12:31;;;;;;;5.00;3.88;;;13.00;95.90;;;;;;6213692;23;20107;-68
2021/05/17 06:15:00;;;;;;;6.35;3.83;;;13.10;95.80;;;;;;6212787;23;20054;-75
2021/05/17 06:17:25;;;;;;;4.80;3.70;;;13.10;95.80;;;;;;6211403;23;20433;-68
2021/05/17 06:19:53;;;;;;;8.18;4.10;;;13.10;95.80;;;;;;6212103;23;20000;-69
2021/05/17 06:22:20;;;;;;;8.63;3.85;;;13.20;95.80;;;;;;6212835;23;20333;-72
2021/05/17 06:24:46;;;;;;;5.25;3.80;;;13.30;95.60;;;;;;6212651;23;20012;-72
2021/05/17 06:27:12;;;;;;;8.38;4.30;;;13.30;95.60;;;;;;6212064;23;20059;-67
2021/05/17 13:06:27;;;;;;;5.03;3.72;;;16.30;80.50;;;;;;6194662;22;20024;-75
2021/05/17 13:09:19;;;;;;;6.15;4.03;;;16.10;82.20;;;;;;6212432;23;20055;-74
2021/05/17 13:11:45;;;;;;;4.20;3.80;;;16.10;84.30;;;;;;6213951;23;20027;-67
2021/05/17 13:14:13;;;;;;;5.63;4.10;;;16.00;85.10;;;;;;6212973;23;20337;-72
2021/05/17 13:16:41;;;;;;;5.40;3.85;;;15.90;85.40;;;;;;6212073;23;20000;-70
2021/05/17 13:25:17;;;;;;;3.38;3.00;;;16.20;85.60;;;;;;6214001;23;20016;-73
2021/05/17 13:30:31;;;;;;;2.00;1.88;;;16.40;83.80;;;;;;6213885;23;20066;-72
2021/05/17 13:32:56;;;;;;;3.15;1.92;;;16.50;81.30;;;;;;6213894;23;20001;-67
2021/05/17 13:35:25;;;;;;;3.22;2.13;;;16.40;80.70;;;;;;6212775;23;20027;-72
2021/05/17 13:37:51;;;;;;;4.90;1.90;;;16.50;82.10;;;;;;6211824;23;20356;-70
2021/05/17 13:40:17;;;;;;;3.13;1.83;;;16.50;81.70;;;;;;6212562;23;20376;-74
2021/05/17 13:42:43;;;;;;;2.72;2.08;;;16.50;80.60;;;;;;6210891;23;20008;-72
2021/05/17 13:45:11;;;;;;;2.97;2.03;;;16.40;79.60;;;;;;6212109;23;20013;-70
2021/05/17 13:47:37;;;;;;;2.35;1.90;;;16.40;80.10;;;;;;6213048;23;20293;-70
2021/05/17 13:50:09;;;;;;;2.45;1.80;;;16.40;80.50;;;;;;6212871;23;20000;-70
2021/05/17 13:52:35;;;;;;;2.45;1.70;;;16.60;80.10;;;;;;6213557;23;20012;-71
2021/05/17 13:55:01;;;;;;;1.77;1.67;;;16.70;79.30;;;;;;6211345;23;20005;-72
2021/05/17 13:57:27;;;;;;;2.35;2.20;;;16.70;80.00;;;;;;6213144;23;20002;-71
2021/05/17 13:59:52;;;;;;;2.63;2.42;;;16.70;78.10;;;;;;6213170;23;20004;-77
2021/05/17 14:02:19;;;;;;;4.50;2.75;;;16.50;78.50;;;;;;6211776;23;20007;-76
2021/05/17 14:04:45;;;;;;;3.40;3.10;;;16.30;79.70;;;;;;6213572;23;20025;-79
2021/05/17 14:07:11;;;;;;;3.55;2.78;;;16.10;81.00;;;;;;6211294;23;20334;-78
2021/05/17 14:09:36;;;;;;;4.65;4.18;;;15.80;80.80;;;;;;6212769;23;20047;-74
2021/05/17 14:12:03;;;;;;;5.40;4.05;;;15.40;81.00;;;;;;6212091;23;20001;-73
2021/05/17 14:14:28;;;;;;;4.95;3.80;;;15.10;82.70;;;;;;6213481;23;20007;-74
2021/05/17 14:16:59;;;;;;;5.65;4.38;;;14.80;86.00;;;;;;6213666;23;20005;-78
2021/05/17 14:19:25;;;;;;;8.63;5.40;;;14.60;87.60;;;;;;6212200;23;20008;-80
2021/05/17 14:21:52;;;;;;;7.93;7.13;;;14.40;89.80;;;;;;6213267;23;20556;-83
2021/05/17 14:24:18;;;;;;;12.38;7.38;;;14.20;90.60;;;;;;6211287;23;20040;-78
2021/05/17 14:26:43;;;;;;;8.00;7.20;;;14.00;91.30;;;;;;6211863;23;20004;-83
2021/05/17 14:29:09;;;;;;;9.68;8.68;;;13.90;91.90;;;;;;6214390;23;20001;-70
2021/05/17 14:31:36;;;;;;;10.73;9.60;;;13.90;92.40;;;;;;6214255;23;20031;-67
2021/05/17 14:34:02;;;;;;;11.60;10.35;;;13.90;92.40;;;;;;6214091;23;20302;-79
2021/05/17 14:36:34;;;;;;;11.82;10.65;;;14.00;92.90;;;;;;6214391;23;20000;-77
2021/05/17 14:39:00;;;;;;;11.57;10.35;;;14.10;92.80;;;;;;6213595;23;20051;-72
2021/05/17 14:41:27;;;;;;;12.45;11.00;;;14.30;92.60;;;;;;6213620;23;20413;-69
2021/05/17 14:43:52;;;;;;;11.52;10.10;;;14.50;92.40;;;;;;6213126;23;20025;-69
2021/05/17 14:46:18;;;;;;;13.38;10.88;;;14.60;92.60;;;;;;6210414;23;20009;-70
2021/05/17 14:48:45;;;;;;;12.68;11.38;;;14.70;92.80;;;;;;6211994;23;20025;-70
2021/05/17 14:51:12;;;;;;;11.38;10.05;;;14.80;92.50;;;;;;6208701;23;20083;-71
2021/05/17 14:53:38;;;;;;;13.98;10.95;;;14.80;92.20;;;;;;6206389;23;20020;-74
2021/05/17 14:56:04;;;;;;;11.55;10.13;;;14.80;92.40;;;;;;6208262;23;20000;-71
2021/05/17 14:58:30;;;;;;;12.73;10.32;;;14.70;92.70;;;;;;6207082;23;20008;-70
2021/05/17 15:00:56;;;;;;;11.93;10.07;;;14.60;92.60;;;;;;6208563;23;20006;-68
2021/05/17 15:03:21;;;;;;;12.73;10.63;;;14.50;92.60;;;;;;6209075;23;20016;-78
2021/05/17 15:05:47;;;;;;;12.90;10.50;;;14.50;93.00;;;;;;6208045;23;20046;-79
2021/05/17 15:08:12;;;;;;;12.70;10.57;;;14.50;93.20;;;;;;6209429;23;20012;-83
2021/05/17 15:10:39;;;;;;;13.05;11.55;;;14.40;93.00;;;;;;6208236;23;20005;-76
2021/05/17 15:13:05;;;;;;;13.40;11.30;;;14.50;93.20;;;;;;6207878;23;20012;-77
2021/05/17 15:15:32;;;;;;;14.20;12.02;;;14.50;93.20;;;;;;6206629;23;20582;-69
2021/05/17 15:17:59;;;;;;;16.52;12.68;;;14.60;93.40;;;;;;6209416;23;20016;-82
2021/05/17 15:20:26;;;;;;;13.70;11.48;;;14.80;93.40;;;;;;6209800;23;20009;-84
2021/05/17 15:22:57;;;;;;;15.05;13.43;;;14.90;93.20;;;;;;6207864;23;20053;-82
2021/05/17 15:25:23;;;;;;;13.93;12.45;;;15.00;93.10;;;;;;6209014;23;20012;-86
2021/05/17 15:27:49;;;;;;;14.68;13.05;;;15.00;93.40;;;;;;6207287;23;20108;-74
2021/05/17 15:30:15;;;;;;;13.82;12.43;;;15.00;92.90;;;;;;6208817;23;20013;-67
2021/05/17 15:32:41;;;;;;;16.90;12.55;;;14.90;92.90;;;;;;6209736;23;20001;-71
2021/05/17 15:35:08;;;;;;;13.63;11.60;;;15.00;93.00;;;;;;6207672;23;20011;-67
2021/05/17 15:37:35;;;;;;;15.23;12.90;;;15.10;93.00;;;;;;6206720;23;19997;-70
2021/05/17 15:40:04;;;;;;;13.30;11.23;;;15.20;93.50;;;;;;6207207;23;20476;-68
2021/05/17 15:42:29;;;;;;;12.85;11.55;;;15.20;92.90;;;;;;6208163;23;20005;-70
2021/05/17 15:44:55;;;;;;;14.27;12.20;;;15.30;92.60;;;;;;6207874;23;20537;-72
2021/05/17 15:47:21;;;;;;;14.88;11.38;;;15.30;92.40;;;;;;6207329;23;20004;-68
2021/05/17 15:49:46;;;;;;;12.85;11.25;;;15.30;92.50;;;;;;6207052;23;20004;-68
2021/05/17 15:52:12;;;;;;;14.23;12.93;;;15.30;92.60;;;;;;6209229;23;20015;-69
2021/05/17 15:54:38;;;;;;;12.77;11.15;;;15.20;92.10;;;;;;6206597;23;20011;-68
2021/05/17 15:57:04;;;;;;;13.35;12.00;;;15.10;92.20;;;;;;6209312;23;20321;-69
2021/05/17 15:59:30;;;;;;;12.98;10.45;;;15.00;92.70;;;;;;6209075;23;20084;-75
2021/05/17 16:01:56;;;;;;;16.02;12.57;;;14.90;92.60;;;;;;6209242;23;20004;-70
2021/05/17 16:04:21;;;;;;;11.82;10.63;;;14.90;92.60;;;;;;6208892;23;20009;-70
2021/05/17 16:06:47;;;;;;;14.02;11.73;;;14.90;92.50;;;;;;6208185;23;20074;-71
2021/05/17 16:09:13;;;;;;;13.02;10.70;;;14.90;92.50;;;;;;6208414;23;20113;-70
2021/05/17 16:11:44;;;;;;;13.50;11.90;;;15.10;92.80;;;;;;6210577;23;20018;-72
2021/05/17 16:22:00;;;;;;;9.68;8.70;;;15.10;92.00;;;;;;6210572;23;20020;-69
2021/05/17 16:24:26;;;;;;;10.20;7.70;;;15.00;91.90;;;;;;6209842;23;20016;-70
2021/05/17 16:26:52;;;;;;;9.10;8.13;;;15.00;91.60;;;;;;6208337;23;20040;-74
2021/05/17 16:29:19;;;;;;;7.55;6.70;;;14.90;91.80;;;;;;6208586;23;20008;-68
2021/05/17 16:31:44;;;;;;;8.15;6.78;;;14.90;91.50;;;;;;6209687;23;20202;-70
2021/05/17 16:34:10;;;;;;;10.52;7.10;;;14.90;91.70;;;;;;6210588;23;20083;-72
2021/05/17 16:36:39;;;;;;;10.10;7.78;;;15.20;91.30;;;;;;6208343;23;20057;-74
2021/05/17 16:39:06;;;;;;;10.50;7.28;;;15.70;90.70;;;;;;6208862;23;20092;-70
2021/05/17 16:41:32;;;;;;;7.22;5.78;;;17.30;86.70;;;;;;6209586;23;20011;-68
2021/05/17 16:43:58;;;;;;;12.80;5.60;;;18.10;83.10;;;;;;6209566;23;20314;-73
2021/05/17 16:46:24;;;;;;;7.75;4.70;;;19.10;81.10;;;;;;6208723;23;20123;-73
2021/05/17 16:49:04;;;;;;;8.18;4.38;;;19.50;79.10;;;;;;6208211;23;20012;-69
2021/05/17 16:51:36;;;;;;;8.35;4.10;;;19.40;75.70;;;;;;6208336;23;20069;-71
2021/05/17 16:54:07;;;;;;;7.95;3.55;;;19.50;75.40;;;;;;6208986;23;20019;-71
2021/05/17 16:56:33;;;;;;;6.97;2.65;;;20.20;73.60;;;;;;6209781;23;20004;-75
2021/05/17 16:58:59;;;;;;;10.95;2.95;;;21.00;68.60;;;;;;6207895;23;20058;-75
2021/05/17 17:01:25;;;;;;;7.43;3.03;;;21.00;69.00;;;;;;6210484;23;20040;-73
2021/05/17 17:03:51;;;;;;;6.10;2.78;;;20.20;69.10;;;;;;6209854;23;20035;-77
2021/05/17 17:06:16;;;;;;;8.57;2.65;;;19.20;70.80;;;;;;6208844;23;20491;-71
2021/05/17 17:08:42;;;;;;;8.55;3.00;;;18.40;73.50;;;;;;6210132;23;20063;-76
2021/05/17 17:11:11;;;;;;;8.93;3.60;;;18.30;74.70;;;;;;6208339;23;20066;-76
2021/05/17 17:13:37;;;;;;;7.18;3.10;;;19.10;73.40;;;;;;6209312;23;20055;-75
2021/05/17 17:16:03;;;;;;;5.47;2.72;;;19.90;70.00;;;;;;6209854;23;20008;-77
2021/05/17 17:18:29;;;;;;;6.28;2.85;;;20.30;68.10;;;;;;6209595;23;20329;-71
2021/05/17 17:20:56;;;;;;;9.27;3.10;;;21.20;67.00;;;;;;6207096;23;20051;-71
2021/05/17 17:23:21;;;;;;;6.88;2.42;;;21.50;65.60;;;;;;6209949;23;20008;-69
2021/05/17 17:25:47;;;;;;;7.70;3.13;;;21.30;64.20;;;;;;6207501;23;20115;-69
2021/05/17 17:28:14;;;;;;;6.20;2.78;;;21.10;62.40;;;;;;6209494;23;20001;-70
2021/05/17 17:30:40;;;;;;;6.85;2.85;;;20.80;63.80;;;;;;6210153;23;20108;-70
2021/05/17 17:33:06;;;;;;;6.78;3.20;;;19.90;64.30;;;;;;6209615;23;20081;-68
2021/05/17 17:35:33;;;;;;;8.45;3.08;;;18.70;67.40;;;;;;6207370;23;20008;-70
2021/05/17 17:37:59;;;;;;;5.70;2.78;;;17.60;70.90;;;;;;6208883;23;20004;-75
2021/05/17 17:40:26;;;;;;;7.63;3.50;;;16.70;74.10;;;;;;6209727;23;20019;-70
2021/05/17 17:42:52;;;;;;;8.18;2.95;;;16.10;76.60;;;;;;6207544;23;20005;-71
2021/05/17 17:45:18;;;;;;;9.95;3.35;;;15.70;78.60;;;;;;6209458;23;20035;-74
2021/05/17 17:47:44;;;;;;;10.98;3.63;;;15.60;80.50;;;;;;6207149;23;20088;-71
2021/05/17 17:50:10;;;;;;;7.88;3.65;;;15.60;80.20;;;;;;6208622;23;20012;-70
2021/05/17 17:52:37;;;;;;;7.13;3.20;;;15.60;80.40;;;;;;6209274;23;20004;-71
2021/05/17 17:55:04;;;;;;;10.63;4.25;;;16.20;79.60;;;;;;6208307;23;20083;-68
2021/05/17 17:57:29;;;;;;;12.20;3.80;;;16.40;79.40;;;;;;6208078;23;20008;-73
2021/05/17 17:59:55;;;;;;;8.65;3.97;;;16.20;79.20;;;;;;6209044;23;20428;-71
2021/05/17 18:02:21;;;;;;;12.48;3.42;;;16.00;79.40;;;;;;6208639;23;20414;-71
2021/05/17 18:04:46;;;;;;;8.50;3.33;;;15.80;78.50;;;;;;6207705;23;20074;-78
2021/05/17 18:07:12;;;;;;;11.43;3.90;;;15.40;79.90;;;;;;6209252;23;20024;-70
2021/05/17 18:09:38;;;;;;;9.20;4.03;;;15.30;81.10;;;;;;6208844;23;20011;-71
2021/05/17 18:12:07;;;;;;;9.15;3.58;;;15.10;81.30;;;;;;6208004;23;20012;-72
2021/05/17 18:14:33;;;;;;;8.70;3.80;;;14.90;82.20;;;;;;6208220;23;20012;-73
2021/05/17 18:16:59;;;;;;;8.57;4.63;;;14.70;83.20;;;;;;6208482;23;20369;-70
2021/05/17 18:19:25;;;;;;;7.90;4.00;;;14.50;83.90;;;;;;6208833;23;20008;-71
2021/05/17 18:21:50;;;;;;;8.52;4.30;;;14.40;84.80;;;;;;6207424;23;20005;-70
2021/05/17 18:24:17;;;;;;;9.93;4.15;;;14.30;85.10;;;;;;6208323;23;20485;-75
2021/05/17 18:26:44;;;;;;;9.50;4.15;;;14.20;85.30;;;;;;6208530;23;20075;-71
2021/05/17 18:29:16;;;;;;;12.50;4.63;;;14.10;85.40;;;;;;6209217;23;20004;-75
2021/05/17 18:31:52;;;;;;;10.55;4.13;;;14.00;86.00;;;;;;6208252;23;20001;-71
2021/05/17 18:34:28;;;;;;;10.52;4.55;;;13.90;86.70;;;;;;6208553;23;20490;-74
2021/05/17 18:36:54;;;;;;;8.77;4.22;;;13.80;86.70;;;;;;6206155;23;20000;-71
2021/05/17 18:39:19;;;;;;;12.35;4.40;;;13.70;87.50;;;;;;6208164;23;20008;-73
2021/05/17 18:41:45;;;;;;;11.40;4.78;;;13.50;87.70;;;;;;6209374;23;20024;-70
2021/05/17 18:46:45;;;;;;;9.90;4.68;;;13.60;88.20;;;;;;6217859;23;20013;-72
2021/05/17 18:49:11;;;;;;;9.73;4.63;;;13.50;88.30;;;;;;6208817;23;20016;-70
2021/05/17 18:51:39;;;;;;;12.77;4.55;;;13.50;88.00;;;;;;6208855;23;20000;-71
2021/05/17 18:54:07;;;;;;;11.52;5.20;;;13.50;87.80;;;;;;6208820;23;20117;-72
2021/05/17 18:56:38;;;;;;;11.93;4.95;;;13.40;87.40;;;;;;6208533;23;20402;-71
2021/05/17 18:59:07;;;;;;;9.38;4.35;;;13.40;87.60;;;;;;6207163;23;20047;-78
2021/05/17 19:01:32;;;;;;;9.07;5.25;;;13.30;87.90;;;;;;6206659;23;20013;-70
2021/05/17 19:03:58;;;;;;;11.13;4.40;;;13.20;87.80;;;;;;6207057;23;20069;-76
2021/05/17 19:06:30;;;;;;;7.10;3.97;;;13.20;88.10;;;;;;6208026;23;20095;-73
2021/05/17 19:08:56;;;;;;;8.73;3.33;;;13.10;87.70;;;;;;6207258;23;20017;-74
2021/05/17 19:11:21;;;;;;;14.48;4.22;;;13.00;87.30;;;;;;6209360;23;20693;-80
2021/05/17 19:13:47;;;;;;;10.43;3.28;;;12.90;87.70;;;;;;6206370;23;20005;-78
2021/05/17 19:16:13;;;;;;;11.88;3.50;;;12.80;87.60;;;;;;6207212;23;20011;-81
2021/05/17 19:18:38;;;;;;;12.35;3.95;;;12.80;87.80;;;;;;6206756;23;20009;-76
2021/05/17 19:21:06;;;;;;;13.40;4.30;;;12.70;87.70;;;;;;6208825;23;20004;-75
2021/05/17 19:23:32;;;;;;;8.82;3.95;;;12.70;87.80;;;;;;6209307;23;20177;-71
2021/05/17 19:25:58;;;;;;;8.57;3.65;;;12.60;87.80;;;;;;6207315;23;20003;-73
2021/05/17 19:28:28;;;;;;;12.10;4.15;;;12.60;87.80;;;;;;6209309;23;20000;-75
2021/05/17 19:30:54;;;;;;;10.23;3.60;;;12.60;88.00;;;;;;6208800;23;20001;-70
2021/05/17 19:33:19;;;;;;;12.95;4.18;;;12.50;88.30;;;;;;6208365;23;20008;-71
2021/05/17 19:35:45;;;;;;;10.57;4.18;;;12.40;88.90;;;;;;6207809;23;20009;-74
2021/05/17 19:38:11;;;;;;;10.27;3.85;;;12.40;89.40;;;;;;6208563;23;20040;-71
2021/05/17 19:40:38;;;;;;;11.30;4.00;;;12.30;90.10;;;;;;6208277;23;20425;-71
2021/05/17 19:43:05;;;;;;;13.10;5.00;;;12.20;90.20;;;;;;6208839;23;20330;-77
2021/05/17 19:45:30;;;;;;;13.30;4.85;;;12.10;90.30;;;;;;6206890;23;20107;-71